Time;durP1;ratioP1;P1;durP2;ratioP2;P2;SDS_P1;SDS_P2;PMS_P1;PMS_P2;Temp;Humidity;BMP_temperature;BMP_pressure;BME280_temperature;BME280_humidity;BME280_pressure;Samples;Min_cycle;Max_cycle;Signal;HPM_P1;HPM_P2
2023/12/07 00:01:58;;;;;;;50.67;15.75;;;1.80;99.90;;;;;;5075436;28;20032;-62
2023/12/07 00:04:24;;;;;;;47.00;16.20;;;1.80;99.90;;;;;;5076189;28;20056;-63
2023/12/07 00:06:50;;;;;;;45.75;15.38;;;1.70;99.90;;;;;;5093074;28;20048;-62
2023/12/07 00:09:19;;;;;;;40.00;15.43;;;1.80;99.90;;;;;;5059540;28;20316;-63
2023/12/07 00:11:45;;;;;;;41.92;15.15;;;1.90;99.90;;;;;;5076380;28;20050;-63
2023/12/07 00:14:11;;;;;;;69.03;15.20;;;1.90;99.90;;;;;;5092981;28;20095;-62
2023/12/07 00:16:37;;;;;;;43.53;15.25;;;1.90;99.90;;;;;;5059447;28;20066;-62
2023/12/07 00:19:03;;;;;;;40.58;16.33;;;2.00;99.90;;;;;;5059411;28;20025;-62
2023/12/07 00:21:29;;;;;;;42.03;16.13;;;2.00;99.90;;;;;;5093032;28;20115;-63
2023/12/07 00:23:55;;;;;;;38.22;15.55;;;2.00;99.90;;;;;;5059292;28;20086;-62
2023/12/07 00:26:21;;;;;;;51.70;14.95;;;2.10;99.90;;;;;;5076846;28;20029;-63
2023/12/07 00:28:47;;;;;;;47.78;15.98;;;2.20;99.90;;;;;;5075951;28;20441;-62
2023/12/07 00:31:13;;;;;;;53.78;13.82;;;2.20;99.90;;;;;;5059378;28;20029;-62
2023/12/07 00:33:40;;;;;;;81.88;16.35;;;2.10;99.90;;;;;;5059309;28;20128;-63
2023/12/07 00:36:06;;;;;;;54.40;14.70;;;2.20;99.90;;;;;;5059289;28;20021;-63
2023/12/07 00:38:32;;;;;;;71.85;17.02;;;2.20;99.90;;;;;;5059306;28;20083;-64
2023/12/07 00:40:58;;;;;;;62.00;16.08;;;2.20;99.90;;;;;;5059275;28;20051;-62
2023/12/07 00:43:24;;;;;;;58.17;14.93;;;2.20;99.90;;;;;;5059274;28;20173;-63
2023/12/07 00:45:50;;;;;;;52.97;14.90;;;2.20;99.90;;;;;;5076319;28;20059;-63
2023/12/07 00:48:19;;;;;;;60.97;15.10;;;2.20;99.90;;;;;;5059168;28;20404;-63
2023/12/07 00:50:46;;;;;;;58.35;17.20;;;2.30;99.90;;;;;;5075779;28;20090;-64
2023/12/07 00:53:13;;;;;;;69.40;18.35;;;2.30;99.90;;;;;;5075824;28;20162;-63
2023/12/07 00:55:40;;;;;;;64.95;17.38;;;2.30;99.90;;;;;;5075822;28;20079;-62
2023/12/07 00:58:06;;;;;;;63.72;17.48;;;2.40;99.90;;;;;;5075811;28;20449;-63
2023/12/07 01:00:32;;;;;;;58.47;18.15;;;2.50;99.90;;;;;;5075972;28;20103;-62
2023/12/07 01:02:57;;;;;;;63.30;17.00;;;2.50;99.90;;;;;;5092637;28;20143;-61
2023/12/07 01:05:24;;;;;;;56.33;19.23;;;2.50;99.90;;;;;;5075716;28;20036;-63
2023/12/07 01:07:50;;;;;;;68.53;17.98;;;2.50;99.90;;;;;;5075738;28;20043;-63
2023/12/07 01:10:15;;;;;;;103.60;18.63;;;2.60;99.90;;;;;;5075669;28;20281;-62
2023/12/07 01:12:41;;;;;;;69.68;17.63;;;2.50;99.90;;;;;;5058941;28;20395;-63
2023/12/07 01:15:08;;;;;;;63.45;18.85;;;2.60;99.90;;;;;;5079598;28;20036;-62
2023/12/07 01:17:34;;;;;;;83.53;20.05;;;2.60;99.90;;;;;;5062669;28;20040;-63
2023/12/07 01:20:00;;;;;;;66.13;19.70;;;2.60;99.90;;;;;;5062570;28;20183;-63
2023/12/07 01:22:26;;;;;;;75.43;19.95;;;2.70;99.90;;;;;;5062596;28;20131;-63
2023/12/07 01:24:52;;;;;;;99.85;20.15;;;2.70;99.90;;;;;;5079134;28;20111;-62
2023/12/07 01:27:18;;;;;;;85.53;20.75;;;2.70;99.90;;;;;;5079110;28;20043;-62
2023/12/07 01:29:44;;;;;;;69.57;21.45;;;2.70;99.90;;;;;;5078917;28;20040;-63
2023/12/07 01:32:10;;;;;;;83.60;23.42;;;2.80;99.90;;;;;;5062353;28;20114;-63
2023/12/07 01:34:36;;;;;;;71.57;22.75;;;2.80;99.90;;;;;;5079050;28;20033;-62
2023/12/07 01:37:02;;;;;;;103.45;24.23;;;2.80;99.90;;;;;;5095832;28;20052;-61
2023/12/07 01:39:28;;;;;;;113.57;26.05;;;2.90;99.90;;;;;;5062245;28;20036;-61
2023/12/07 01:41:54;;;;;;;107.57;24.40;;;2.90;99.90;;;;;;5062152;28;20098;-63
2023/12/07 01:44:20;;;;;;;83.53;25.13;;;2.80;99.90;;;;;;5078834;28;20063;-63
2023/12/07 01:46:47;;;;;;;88.25;25.55;;;2.80;99.90;;;;;;5078840;28;20037;-63
2023/12/07 01:49:12;;;;;;;104.22;24.77;;;2.80;99.90;;;;;;5061990;28;20479;-62
2023/12/07 01:51:42;;;;;;;84.93;23.90;;;2.70;99.90;;;;;;5062339;28;20304;-62
2023/12/07 01:54:09;;;;;;;83.32;24.85;;;2.80;99.90;;;;;;5061970;28;20056;-61
2023/12/07 01:56:35;;;;;;;86.95;24.42;;;2.90;99.90;;;;;;5078698;28;20032;-62
2023/12/07 01:59:01;;;;;;;96.00;24.83;;;2.90;99.90;;;;;;5061616;28;20036;-62
2023/12/07 02:01:27;;;;;;;81.35;24.02;;;2.90;99.90;;;;;;5062173;28;20402;-64
2023/12/07 02:03:53;;;;;;;77.13;23.40;;;2.90;99.90;;;;;;5078527;28;20085;-62
2023/12/07 02:06:20;;;;;;;92.13;23.00;;;2.80;99.90;;;;;;5095504;28;20039;-62
2023/12/07 02:08:46;;;;;;;65.68;21.70;;;2.70;99.90;;;;;;5078324;28;20137;-62
2023/12/07 02:11:12;;;;;;;69.13;20.10;;;2.70;99.90;;;;;;5078241;28;20032;-62
2023/12/07 02:13:40;;;;;;;70.05;21.52;;;2.70;99.90;;;;;;5061465;28;20434;-62
2023/12/07 02:16:21;;;;;;;61.83;19.80;;;2.60;99.90;;;;;;5061642;28;20028;-62
2023/12/07 02:19:17;;;;;;;62.35;19.42;;;2.60;99.90;;;;;;5061548;28;20027;-62
2023/12/07 02:21:56;;;;;;;67.22;19.60;;;2.50;99.90;;;;;;5077112;28;20048;-62
2023/12/07 02:24:25;;;;;;;57.53;18.85;;;2.60;99.90;;;;;;5061566;28;20035;-62
2023/12/07 02:26:51;;;;;;;59.58;20.52;;;2.60;99.90;;;;;;5060564;28;20400;-63
2023/12/07 02:29:21;;;;;;;59.83;20.00;;;2.70;99.90;;;;;;5061003;28;20411;-63
2023/12/07 02:31:46;;;;;;;61.55;19.98;;;2.70;99.90;;;;;;5077807;28;20043;-62
2023/12/07 02:34:12;;;;;;;54.92;19.83;;;2.80;99.90;;;;;;5077717;28;20396;-63
2023/12/07 02:36:44;;;;;;;62.80;22.02;;;2.80;99.90;;;;;;5094260;28;20431;-63
2023/12/07 02:39:12;;;;;;;54.58;19.92;;;2.80;99.90;;;;;;5077441;28;20025;-60
2023/12/07 02:41:40;;;;;;;57.72;20.27;;;2.70;99.90;;;;;;5077512;28;20036;-60
2023/12/07 02:44:07;;;;;;;59.25;19.92;;;2.80;99.90;;;;;;5077361;28;20112;-61
2023/12/07 02:46:33;;;;;;;58.70;21.17;;;2.80;99.90;;;;;;5077507;28;20106;-61
2023/12/07 02:48:59;;;;;;;60.47;21.08;;;2.90;99.90;;;;;;5078200;28;20021;-61
2023/12/07 02:51:25;;;;;;;61.25;20.80;;;2.90;99.90;;;;;;5094118;28;20040;-61
2023/12/07 02:53:50;;;;;;;60.25;21.20;;;2.90;99.90;;;;;;5094170;28;20035;-61
2023/12/07 02:56:19;;;;;;;61.88;22.02;;;2.90;99.90;;;;;;5060532;28;20028;-62
2023/12/07 02:58:45;;;;;;;62.70;21.77;;;3.00;99.90;;;;;;5093840;28;20327;-62
2023/12/07 03:01:10;;;;;;;56.35;20.80;;;3.00;99.90;;;;;;5060524;28;20032;-62
2023/12/07 03:03:38;;;;;;;61.17;22.20;;;3.10;99.90;;;;;;5077238;28;20056;-62
2023/12/07 03:06:04;;;;;;;59.25;21.98;;;3.10;99.90;;;;;;5093625;28;20414;-62
2023/12/07 03:08:30;;;;;;;55.35;21.17;;;3.20;99.90;;;;;;5077019;28;20062;-61
2023/12/07 03:10:56;;;;;;;55.40;20.85;;;3.00;99.90;;;;;;5077599;28;20132;-61
2023/12/07 03:13:21;;;;;;;65.25;21.60;;;3.00;99.90;;;;;;5093668;28;20036;-61
2023/12/07 03:15:47;;;;;;;60.25;21.42;;;3.00;99.90;;;;;;5077614;28;20028;-61
2023/12/07 03:18:13;;;;;;;57.80;21.13;;;3.20;99.90;;;;;;5076708;28;20127;-62
2023/12/07 03:20:39;;;;;;;52.38;19.58;;;3.30;99.90;;;;;;5077514;28;20269;-61
2023/12/07 03:23:05;;;;;;;58.40;20.38;;;3.20;99.90;;;;;;5093626;28;20409;-61
2023/12/07 03:25:31;;;;;;;51.55;19.02;;;3.10;99.90;;;;;;5076905;28;20094;-62
2023/12/07 03:27:57;;;;;;;57.42;20.17;;;3.00;99.90;;;;;;5077085;28;20037;-62
2023/12/07 03:30:22;;;;;;;54.92;19.27;;;3.10;99.90;;;;;;5076769;28;20346;-62
2023/12/07 03:32:48;;;;;;;48.92;19.02;;;3.10;99.90;;;;;;5093400;28;20040;-62
2023/12/07 03:35:14;;;;;;;55.35;19.70;;;3.20;99.90;;;;;;5076467;28;20048;-62
2023/12/07 03:37:40;;;;;;;50.17;17.85;;;3.20;99.90;;;;;;5076263;28;20033;-62
2023/12/07 03:40:06;;;;;;;50.78;19.17;;;3.30;99.90;;;;;;5077150;28;20032;-62
2023/12/07 03:42:32;;;;;;;47.40;19.30;;;3.20;99.90;;;;;;5093401;28;20033;-61
2023/12/07 03:44:58;;;;;;;46.72;18.60;;;3.10;99.90;;;;;;5076294;28;20033;-62
2023/12/07 03:47:23;;;;;;;47.50;17.15;;;3.30;99.90;;;;;;5077113;28;20055;-62
2023/12/07 03:49:49;;;;;;;45.92;17.80;;;3.50;99.90;;;;;;5076344;28;20029;-61
2023/12/07 03:52:15;;;;;;;47.55;18.10;;;3.50;99.90;;;;;;5076989;28;20060;-61
2023/12/07 03:54:41;;;;;;;40.85;16.63;;;3.30;99.90;;;;;;5093171;28;20135;-61
2023/12/07 03:57:06;;;;;;;51.35;16.98;;;3.30;99.90;;;;;;5093062;28;20056;-62
2023/12/07 03:59:36;;;;;;;42.05;16.02;;;3.30;99.90;;;;;;5076277;28;20408;-62
2023/12/07 04:02:02;;;;;;;47.05;17.10;;;3.40;99.90;;;;;;5076238;28;20045;-62
2023/12/07 04:04:27;;;;;;;43.45;16.65;;;3.30;99.90;;;;;;5093079;28;20040;-62
2023/12/07 04:06:53;;;;;;;42.97;16.90;;;3.30;99.90;;;;;;5076867;28;20029;-62
2023/12/07 04:09:19;;;;;;;41.83;16.10;;;3.30;99.90;;;;;;5092933;28;20028;-61
2023/12/07 04:11:46;;;;;;;44.03;15.70;;;3.30;99.90;;;;;;5059306;28;20458;-62
2023/12/07 04:14:12;;;;;;;43.75;17.00;;;3.30;99.90;;;;;;5075972;28;20029;-62
2023/12/07 04:16:38;;;;;;;45.15;17.30;;;3.30;99.90;;;;;;5076769;28;20090;-61
2023/12/07 04:19:03;;;;;;;43.70;15.75;;;3.30;99.90;;;;;;5076697;28;20029;-62
2023/12/07 04:21:29;;;;;;;39.47;16.33;;;3.30;99.90;;;;;;5092855;28;20388;-62
2023/12/07 04:23:55;;;;;;;40.60;16.17;;;3.30;99.90;;;;;;5076764;28;20024;-62
2023/12/07 04:26:21;;;;;;;44.40;17.10;;;3.40;99.90;;;;;;5092825;28;20082;-61
2023/12/07 04:28:49;;;;;;;44.20;17.00;;;3.40;99.90;;;;;;5076578;28;20175;-62
2023/12/07 04:31:15;;;;;;;44.22;18.10;;;3.60;99.90;;;;;;5076660;28;20101;-62
2023/12/07 04:33:41;;;;;;;38.50;16.38;;;3.70;99.90;;;;;;5075642;28;20123;-61
2023/12/07 04:36:07;;;;;;;40.72;17.70;;;4.00;99.90;;;;;;5092618;28;20138;-61
2023/12/07 04:38:33;;;;;;;37.83;16.65;;;3.90;99.90;;;;;;5075933;28;20032;-62
2023/12/07 04:40:59;;;;;;;38.53;17.60;;;3.80;99.90;;;;;;5075789;28;20029;-62
2023/12/07 04:43:24;;;;;;;35.70;15.77;;;3.70;99.90;;;;;;5076540;28;20036;-62
2023/12/07 04:45:50;;;;;;;34.50;16.20;;;3.70;99.90;;;;;;5059098;28;20044;-61
2023/12/07 04:48:16;;;;;;;34.05;17.13;;;3.50;99.90;;;;;;5076135;28;20116;-61
2023/12/07 04:50:42;;;;;;;34.55;16.17;;;3.30;99.90;;;;;;5096545;28;20082;-62
2023/12/07 04:53:08;;;;;;;29.70;15.68;;;3.20;99.90;;;;;;5096470;28;20086;-61
2023/12/07 04:55:34;;;;;;;35.15;16.20;;;3.20;99.90;;;;;;5096486;28;20039;-61
2023/12/07 04:57:59;;;;;;;31.17;15.75;;;3.20;99.90;;;;;;5080215;28;20028;-62
2023/12/07 05:00:25;;;;;;;36.03;15.70;;;3.20;99.90;;;;;;5080212;28;20029;-62
2023/12/07 05:02:54;;;;;;;30.55;15.13;;;3.20;99.90;;;;;;5080240;28;20063;-62
2023/12/07 05:05:20;;;;;;;34.72;15.55;;;3.10;99.90;;;;;;5079306;28;20052;-62
2023/12/07 05:07:46;;;;;;;32.17;16.27;;;3.30;99.90;;;;;;5080054;28;20090;-62
2023/12/07 05:10:12;;;;;;;31.83;15.55;;;3.50;99.90;;;;;;5062562;28;20040;-61
2023/12/07 05:12:37;;;;;;;35.65;16.33;;;3.50;99.90;;;;;;5096055;28;20086;-61
2023/12/07 05:15:05;;;;;;;34.65;16.05;;;3.70;99.90;;;;;;5096042;28;20077;-61
2023/12/07 05:17:31;;;;;;;34.70;16.33;;;3.80;99.90;;;;;;5079878;28;20043;-61
2023/12/07 05:19:57;;;;;;;30.92;15.88;;;3.90;99.90;;;;;;5096053;28;20131;-61
2023/12/07 05:22:23;;;;;;;30.90;16.05;;;4.10;99.90;;;;;;5078940;28;20176;-62
2023/12/07 05:24:50;;;;;;;35.45;16.02;;;3.80;99.90;;;;;;5095899;28;20449;-61
2023/12/07 05:27:16;;;;;;;36.42;16.00;;;3.90;99.90;;;;;;5079698;28;20024;-61
2023/12/07 05:29:41;;;;;;;33.75;15.77;;;3.90;99.90;;;;;;5078649;28;20405;-61
2023/12/07 05:32:07;;;;;;;36.63;16.38;;;3.80;99.90;;;;;;5079507;28;20127;-61
2023/12/07 05:34:35;;;;;;;32.53;16.23;;;3.70;99.90;;;;;;5095893;28;20036;-61
2023/12/07 05:37:01;;;;;;;31.90;15.60;;;3.70;99.90;;;;;;5062019;28;20025;-61
2023/12/07 05:39:27;;;;;;;32.67;15.38;;;3.70;99.90;;;;;;5079395;28;20086;-62
2023/12/07 05:41:53;;;;;;;31.40;15.40;;;3.70;99.90;;;;;;5078595;28;20097;-61
2023/12/07 05:44:21;;;;;;;32.30;16.20;;;3.70;99.90;;;;;;5078621;28;20036;-62
2023/12/07 05:46:48;;;;;;;32.15;16.48;;;3.70;99.90;;;;;;5079234;28;20059;-61
2023/12/07 05:49:14;;;;;;;36.05;16.27;;;3.70;99.90;;;;;;5095267;28;20044;-61
2023/12/07 05:51:39;;;;;;;34.80;15.90;;;3.70;99.90;;;;;;5078359;28;20150;-62
2023/12/07 05:54:05;;;;;;;32.67;15.55;;;3.70;99.90;;;;;;5078381;28;20453;-62
2023/12/07 05:56:31;;;;;;;28.42;14.70;;;3.80;99.90;;;;;;5078466;28;20040;-62
2023/12/07 05:58:57;;;;;;;30.58;14.75;;;3.70;99.90;;;;;;5078301;28;20060;-62
2023/12/07 06:01:24;;;;;;;26.80;13.98;;;3.90;99.90;;;;;;5078237;28;20052;-66
2023/12/07 06:03:50;;;;;;;30.35;14.50;;;4.00;99.90;;;;;;5095025;28;20045;-62
2023/12/07 06:06:16;;;;;;;24.75;14.02;;;4.00;99.90;;;;;;5078113;28;20349;-62
2023/12/07 06:08:42;;;;;;;25.55;14.25;;;4.10;99.90;;;;;;5078876;28;20407;-62
2023/12/07 06:11:08;;;;;;;26.40;13.70;;;4.20;99.90;;;;;;5061361;28;20119;-61
2023/12/07 06:13:33;;;;;;;23.55;13.20;;;4.20;99.90;;;;;;5094688;28;20167;-61
2023/12/07 06:16:01;;;;;;;24.35;13.27;;;3.80;99.90;;;;;;5078668;28;20025;-61
2023/12/07 06:18:27;;;;;;;24.63;13.48;;;3.50;99.90;;;;;;5078214;28;20052;-65
2023/12/07 06:20:53;;;;;;;24.98;13.50;;;3.60;99.90;;;;;;5078642;28;20033;-61
2023/12/07 06:23:18;;;;;;;22.58;12.93;;;3.50;99.90;;;;;;5077952;28;20277;-62
2023/12/07 06:25:44;;;;;;;23.77;12.98;;;3.60;99.90;;;;;;5094791;28;20300;-61
2023/12/07 06:28:10;;;;;;;21.23;12.98;;;3.60;99.90;;;;;;5094457;28;20056;-62
2023/12/07 06:30:36;;;;;;;21.50;12.32;;;3.50;99.90;;;;;;5077888;28;20281;-61
2023/12/07 06:33:02;;;;;;;22.92;12.20;;;3.50;99.90;;;;;;5077804;28;20311;-62
2023/12/07 06:35:29;;;;;;;22.95;13.05;;;3.40;99.90;;;;;;5060947;28;20066;-62
2023/12/07 06:37:54;;;;;;;24.33;12.25;;;3.40;99.90;;;;;;5077533;28;20028;-62
2023/12/07 06:40:20;;;;;;;22.45;13.15;;;3.30;99.90;;;;;;5060849;28;20028;-62
2023/12/07 06:42:46;;;;;;;23.60;12.85;;;3.40;99.90;;;;;;5060839;28;20067;-62
2023/12/07 06:45:14;;;;;;;23.25;13.25;;;3.50;99.90;;;;;;5094290;28;20094;-61
2023/12/07 06:47:43;;;;;;;25.33;13.57;;;3.30;99.90;;;;;;5077456;28;20082;-61
2023/12/07 06:50:12;;;;;;;28.20;14.85;;;3.30;99.90;;;;;;5078047;28;20089;-62
2023/12/07 06:52:39;;;;;;;26.95;14.35;;;3.40;99.90;;;;;;5077373;28;20042;-62
2023/12/07 06:55:05;;;;;;;27.98;14.50;;;3.50;99.90;;;;;;5077922;28;20036;-61
2023/12/07 06:57:33;;;;;;;27.80;14.88;;;3.50;99.90;;;;;;5094284;28;20446;-63
2023/12/07 06:59:58;;;;;;;26.23;15.32;;;3.40;99.90;;;;;;5077902;28;20035;-62
2023/12/07 07:02:24;;;;;;;29.45;15.35;;;3.50;99.90;;;;;;5094016;28;20062;-62
2023/12/07 07:04:50;;;;;;;26.25;15.15;;;3.60;99.90;;;;;;5077844;28;20115;-63
2023/12/07 07:07:16;;;;;;;26.67;15.30;;;3.80;99.90;;;;;;5093848;28;20040;-62
2023/12/07 07:09:42;;;;;;;26.45;15.25;;;3.90;99.90;;;;;;5076968;28;20412;-62
2023/12/07 07:12:08;;;;;;;32.42;16.73;;;3.80;99.90;;;;;;5077115;28;20045;-62
2023/12/07 07:14:34;;;;;;;24.38;15.25;;;4.00;99.90;;;;;;5076814;28;20021;-62
2023/12/07 07:17:00;;;;;;;26.33;15.05;;;4.00;99.90;;;;;;5077521;28;20033;-62
2023/12/07 07:19:26;;;;;;;22.90;14.82;;;4.10;99.90;;;;;;5076683;28;20119;-63
2023/12/07 07:21:51;;;;;;;28.42;15.93;;;4.20;99.90;;;;;;5093679;28;20024;-63
2023/12/07 07:24:17;;;;;;;24.40;15.25;;;4.20;99.90;;;;;;5076370;28;20059;-62
2023/12/07 07:26:43;;;;;;;20.08;12.43;;;4.20;99.90;;;;;;5077342;28;20052;-61
2023/12/07 07:29:09;;;;;;;26.33;14.93;;;5.30;99.90;;;;;;5059662;28;20122;-62
2023/12/07 07:31:36;;;;;;;21.45;14.25;;;5.00;99.90;;;;;;5076208;28;20060;-62
2023/12/07 07:34:02;;;;;;;21.98;13.60;;;4.70;99.90;;;;;;5077069;28;20036;-62
2023/12/07 07:36:28;;;;;;;21.92;13.75;;;4.50;99.90;;;;;;5076283;28;20040;-62
2023/12/07 07:38:54;;;;;;;21.52;13.98;;;4.30;99.90;;;;;;5076961;28;20422;-62
2023/12/07 07:41:20;;;;;;;21.90;14.15;;;4.50;99.90;;;;;;5076175;28;20036;-62
2023/12/07 07:43:46;;;;;;;22.45;13.38;;;4.30;99.90;;;;;;5077010;28;20360;-62
2023/12/07 07:46:12;;;;;;;21.20;13.18;;;4.20;99.90;;;;;;5092989;28;20419;-62
2023/12/07 07:48:39;;;;;;;21.90;13.25;;;5.00;99.90;;;;;;5093128;28;20043;-61
2023/12/07 07:51:05;;;;;;;22.42;13.88;;;4.60;99.90;;;;;;5075932;28;20067;-60
2023/12/07 07:53:30;;;;;;;22.70;13.40;;;4.50;99.90;;;;;;5076222;28;20052;-60
2023/12/07 07:55:56;;;;;;;22.30;13.13;;;4.30;99.90;;;;;;5076147;28;20123;-62
2023/12/07 07:58:22;;;;;;;21.83;12.77;;;4.10;99.90;;;;;;5077005;28;20047;-60
2023/12/07 08:00:48;;;;;;;22.70;13.23;;;4.00;99.90;;;;;;5077137;28;20100;-61
2023/12/07 08:03:14;;;;;;;21.85;13.27;;;3.90;99.90;;;;;;5076159;28;20040;-61
2023/12/07 08:05:39;;;;;;;20.95;12.77;;;3.90;99.90;;;;;;5077045;28;20281;-60
2023/12/07 08:08:05;;;;;;;24.48;12.57;;;3.70;99.90;;;;;;5076015;28;20029;-61
2023/12/07 08:10:31;;;;;;;22.00;13.35;;;3.80;99.90;;;;;;5076058;28;20098;-61
2023/12/07 08:12:57;;;;;;;22.15;12.93;;;3.80;99.90;;;;;;5076802;28;20127;-60
2023/12/07 08:15:22;;;;;;;21.92;12.45;;;3.80;99.90;;;;;;5076145;28;20399;-61
2023/12/07 08:17:48;;;;;;;20.92;12.18;;;3.80;99.90;;;;;;5076730;28;20037;-61
2023/12/07 08:20:14;;;;;;;23.33;12.48;;;3.90;99.90;;;;;;5092918;28;20040;-61
2023/12/07 08:22:43;;;;;;;22.30;12.23;;;3.90;99.90;;;;;;5076645;28;20029;-61
2023/12/07 08:25:10;;;;;;;18.25;11.82;;;3.90;99.90;;;;;;5080407;28;20108;-62
2023/12/07 08:27:38;;;;;;;21.77;12.25;;;3.90;99.90;;;;;;5080658;28;20016;-61
2023/12/07 08:30:04;;;;;;;22.58;11.65;;;4.00;99.90;;;;;;5080917;28;20045;-61
2023/12/07 08:32:30;;;;;;;21.48;12.40;;;4.00;99.90;;;;;;5080697;28;20044;-61
2023/12/07 08:34:56;;;;;;;22.10;11.50;;;4.10;99.90;;;;;;5080286;28;20411;-61
2023/12/07 08:37:22;;;;;;;18.55;11.27;;;4.00;99.90;;;;;;5080039;28;20029;-61
2023/12/07 08:39:48;;;;;;;17.50;10.85;;;4.00;99.90;;;;;;5063241;28;20028;-62
2023/12/07 08:42:14;;;;;;;19.63;11.30;;;4.10;99.90;;;;;;5079843;28;20055;-61
2023/12/07 08:44:41;;;;;;;21.20;10.77;;;4.00;99.90;;;;;;5080061;28;20032;-61
2023/12/07 08:47:07;;;;;;;22.40;11.32;;;4.00;99.90;;;;;;5096612;28;20040;-61
2023/12/07 08:49:32;;;;;;;22.08;11.48;;;4.10;99.90;;;;;;5096684;28;20303;-61
2023/12/07 08:51:58;;;;;;;20.08;11.38;;;4.20;99.90;;;;;;5096501;28;20445;-61
2023/12/07 08:54:24;;;;;;;23.38;11.77;;;4.10;99.90;;;;;;5096599;28;20060;-61
2023/12/07 08:56:50;;;;;;;18.60;11.23;;;4.20;99.90;;;;;;5096537;28;20024;-60
2023/12/07 08:59:16;;;;;;;20.98;11.15;;;4.20;99.90;;;;;;5062855;28;20420;-60
2023/12/07 09:01:42;;;;;;;17.80;11.13;;;4.10;99.90;;;;;;5080390;28;20071;-61
2023/12/07 09:04:08;;;;;;;22.83;11.55;;;4.20;99.90;;;;;;5062645;28;20124;-60
2023/12/07 09:06:36;;;;;;;20.75;11.30;;;4.20;99.90;;;;;;5095907;28;20041;-60
2023/12/07 09:09:06;;;;;;;21.45;11.23;;;4.40;99.90;;;;;;5079329;28;20040;-60
2023/12/07 09:11:32;;;;;;;18.13;10.52;;;4.30;99.90;;;;;;5079369;28;20349;-62
2023/12/07 09:13:58;;;;;;;17.52;10.93;;;4.30;99.90;;;;;;5079109;28;20341;-62
2023/12/07 09:16:25;;;;;;;15.15;9.82;;;4.50;99.90;;;;;;5079847;28;20048;-61
2023/12/07 09:18:51;;;;;;;18.38;10.43;;;4.60;99.90;;;;;;5095968;28;20025;-61
2023/12/07 09:21:17;;;;;;;17.17;10.98;;;4.60;99.90;;;;;;5079175;28;20111;-61
2023/12/07 09:23:44;;;;;;;15.52;10.27;;;4.50;99.90;;;;;;5079026;28;20060;-62
2023/12/07 09:26:10;;;;;;;15.90;9.88;;;4.50;99.90;;;;;;5062281;28;20347;-62
2023/12/07 09:28:36;;;;;;;18.40;10.90;;;4.60;99.90;;;;;;5079574;28;20075;-61
2023/12/07 09:31:03;;;;;;;15.95;10.20;;;4.70;99.90;;;;;;5079020;28;20059;-61
2023/12/07 09:33:28;;;;;;;20.27;10.77;;;4.80;99.90;;;;;;5079450;28;20043;-62
2023/12/07 09:35:54;;;;;;;15.90;10.52;;;4.90;99.90;;;;;;5079040;28;20376;-61
2023/12/07 09:38:20;;;;;;;16.92;10.38;;;5.10;99.90;;;;;;5079508;28;20035;-61
2023/12/07 09:40:46;;;;;;;19.02;10.57;;;5.00;99.90;;;;;;5079577;28;20028;-61
2023/12/07 09:43:13;;;;;;;17.85;10.10;;;5.20;99.90;;;;;;5078523;28;20028;-63
2023/12/07 09:45:39;;;;;;;17.23;10.18;;;5.40;99.90;;;;;;5079366;28;20300;-61
2023/12/07 09:48:07;;;;;;;17.13;9.88;;;5.20;99.90;;;;;;5078473;28;20093;-61
2023/12/07 09:50:33;;;;;;;18.85;10.07;;;5.10;99.90;;;;;;5078551;28;20035;-61
2023/12/07 09:52:59;;;;;;;18.10;9.77;;;5.00;99.90;;;;;;5078461;28;20120;-61
2023/12/07 09:55:25;;;;;;;17.33;9.32;;;5.00;99.90;;;;;;5061790;28;20068;-62
2023/12/07 09:57:54;;;;;;;18.08;9.40;;;5.00;99.90;;;;;;5095412;28;20139;-61
2023/12/07 10:00:20;;;;;;;18.30;9.65;;;5.10;99.90;;;;;;5078431;28;20029;-62
2023/12/07 10:02:46;;;;;;;14.07;8.85;;;5.30;99.90;;;;;;5079083;28;20086;-62
2023/12/07 10:05:13;;;;;;;14.77;9.38;;;5.50;99.90;;;;;;5095286;28;20032;-62
2023/12/07 10:07:41;;;;;;;12.60;9.02;;;5.50;99.90;;;;;;5061611;28;20079;-62
2023/12/07 10:10:07;;;;;;;13.38;8.55;;;5.80;99.90;;;;;;5079044;28;20060;-62
2023/12/07 10:12:34;;;;;;;14.93;8.38;;;5.80;99.90;;;;;;5078883;28;20102;-62
2023/12/07 10:15:17;;;;;;;15.70;8.88;;;5.60;99.90;;;;;;5094982;28;20020;-63
2023/12/07 10:17:47;;;;;;;14.43;8.18;;;5.80;99.90;;;;;;5078964;28;20033;-62
2023/12/07 10:20:15;;;;;;;11.80;7.47;;;5.80;99.90;;;;;;5078647;28;20111;-61
2023/12/07 10:22:41;;;;;;;13.95;8.18;;;6.70;99.90;;;;;;5077811;28;20058;-63
2023/12/07 10:25:09;;;;;;;13.60;7.50;;;6.90;99.90;;;;;;5078401;28;20041;-62
2023/12/07 10:27:35;;;;;;;12.45;7.63;;;7.20;99.90;;;;;;5077467;28;20429;-62
2023/12/07 10:30:01;;;;;;;12.98;7.10;;;7.70;98.80;;;;;;5078634;28;20040;-62
2023/12/07 10:32:27;;;;;;;10.27;7.55;;;7.60;84.20;;;;;;5077930;28;20045;-62
2023/12/07 10:34:56;;;;;;;11.98;7.25;;;7.50;93.90;;;;;;5094708;28;20036;-62
2023/12/07 10:37:22;;;;;;;12.57;7.25;;;7.50;91.30;;;;;;5078506;28;20029;-62
2023/12/07 10:39:48;;;;;;;15.35;7.97;;;7.30;95.20;;;;;;5061064;28;20032;-62
2023/12/07 10:42:16;;;;;;;11.68;7.45;;;7.20;99.90;;;;;;5077673;28;20107;-62
2023/12/07 10:44:45;;;;;;;12.85;7.43;;;7.00;96.10;;;;;;5078531;28;20319;-62
2023/12/07 10:47:11;;;;;;;9.82;6.88;;;6.90;99.90;;;;;;5076647;28;20024;-62
2023/12/07 10:49:42;;;;;;;12.15;7.30;;;7.10;99.80;;;;;;5060702;28;20036;-61
2023/12/07 10:52:15;;;;;;;16.08;7.78;;;7.20;99.40;;;;;;5078085;28;20079;-61
2023/12/07 10:54:51;;;;;;;12.13;7.50;;;7.30;96.00;;;;;;5078300;28;20028;-62
2023/12/07 10:57:17;;;;;;;12.18;7.22;;;7.50;92.90;;;;;;5078087;28;20024;-62
2023/12/07 10:59:44;;;;;;;13.93;7.28;;;7.70;94.90;;;;;;5078059;28;20025;-64
2023/12/07 11:02:13;;;;;;;12.02;7.13;;;8.10;76.90;;;;;;5093753;28;20269;-64
2023/12/07 11:04:42;;;;;;;10.30;6.85;;;7.60;90.40;;;;;;5078093;28;20024;-63
2023/12/07 11:07:14;;;;;;;14.38;7.65;;;7.60;90.30;;;;;;5077716;28;20060;-62
2023/12/07 11:09:47;;;;;;;11.95;7.28;;;7.40;90.50;;;;;;5078025;28;20028;-63
2023/12/07 11:12:21;;;;;;;10.30;7.50;;;7.10;98.00;;;;;;5076928;28;20111;-61
2023/12/07 11:14:48;;;;;;;10.60;7.72;;;7.00;99.90;;;;;;5077713;28;20078;-65
2023/12/07 11:17:16;;;;;;;14.82;7.50;;;6.80;99.90;;;;;;5077583;28;20067;-62
2023/12/07 11:19:46;;;;;;;14.93;7.68;;;6.80;99.90;;;;;;5077008;28;20021;-63
2023/12/07 11:22:13;;;;;;;12.45;7.53;;;6.80;99.90;;;;;;5076929;28;20044;-63
2023/12/07 11:24:57;;;;;;;14.73;7.82;;;6.90;99.90;;;;;;5060226;28;20407;-61
2023/12/07 11:27:24;;;;;;;12.93;7.55;;;6.90;99.90;;;;;;5077036;28;20306;-63
2023/12/07 11:29:50;;;;;;;12.25;7.03;;;6.80;99.90;;;;;;5076656;28;20052;-62
2023/12/07 11:32:16;;;;;;;12.30;7.65;;;6.90;99.90;;;;;;5076545;28;20044;-62
2023/12/07 11:34:44;;;;;;;11.07;7.25;;;7.10;99.90;;;;;;5093466;28;20048;-62
2023/12/07 11:37:14;;;;;;;14.80;7.50;;;7.30;99.90;;;;;;5077383;28;20063;-62
2023/12/07 11:39:41;;;;;;;12.93;7.63;;;7.40;96.90;;;;;;5076604;28;20309;-62
2023/12/07 11:42:11;;;;;;;11.60;7.03;;;7.30;97.40;;;;;;5077247;28;20025;-61
2023/12/07 11:44:39;;;;;;;11.32;6.93;;;7.30;96.40;;;;;;5077329;28;20033;-61
2023/12/07 11:47:05;;;;;;;11.43;7.65;;;7.30;99.00;;;;;;5076490;28;20105;-61
2023/12/07 11:49:32;;;;;;;9.98;6.38;;;7.40;99.00;;;;;;5076336;28;20050;-61
2023/12/07 11:51:58;;;;;;;10.68;7.47;;;7.60;97.50;;;;;;5077056;28;20086;-61
2023/12/07 11:54:28;;;;;;;13.27;7.20;;;7.60;92.50;;;;;;5076438;28;20032;-61
2023/12/07 11:56:58;;;;;;;9.57;7.30;;;7.50;92.60;;;;;;5092788;28;20048;-61
2023/12/07 11:59:27;;;;;;;15.32;7.63;;;7.50;96.70;;;;;;5076133;28;20032;-62
2023/12/07 12:01:53;;;;;;;12.25;7.07;;;7.40;97.00;;;;;;5076125;28;20032;-62
2023/12/07 12:04:21;;;;;;;13.40;7.75;;;7.20;98.50;;;;;;5076757;28;20035;-61
2023/12/07 12:06:47;;;;;;;10.93;6.32;;;7.20;99.90;;;;;;5092788;28;20054;-61
2023/12/07 12:09:19;;;;;;;13.45;7.38;;;7.30;96.20;;;;;;5093091;28;20080;-61
2023/12/07 12:11:48;;;;;;;14.65;7.20;;;7.40;98.80;;;;;;5077153;28;20109;-63
2023/12/07 12:14:16;;;;;;;10.35;6.68;;;7.40;97.60;;;;;;5076850;28;20300;-60
2023/12/07 12:16:45;;;;;;;14.90;7.03;;;7.40;97.70;;;;;;5076967;28;20048;-60
2023/12/07 12:19:11;;;;;;;9.25;6.95;;;7.50;95.60;;;;;;5075697;28;20025;-64
2023/12/07 12:21:40;;;;;;;10.55;6.97;;;7.50;95.10;;;;;;5059246;28;20031;-61
2023/12/07 12:24:06;;;;;;;10.50;6.43;;;7.30;92.90;;;;;;5076708;28;20119;-61
2023/12/07 12:26:38;;;;;;;10.60;6.40;;;7.10;99.00;;;;;;5093048;28;20072;-61
2023/12/07 12:29:04;;;;;;;12.77;6.70;;;7.10;99.90;;;;;;5075843;28;20139;-61
2023/12/07 12:31:30;;;;;;;11.60;7.00;;;7.20;99.90;;;;;;5076713;28;20031;-61
2023/12/07 12:33:56;;;;;;;10.88;6.40;;;7.20;93.90;;;;;;5075803;28;20119;-61
2023/12/07 12:36:27;;;;;;;8.88;6.00;;;7.30;93.90;;;;;;5059246;28;20052;-61